Wilson Creek, WA (98860)

2:40 PM PDT on August 23, 2016 (GMT -0700)
Wilson Creek | | Change Station

Elev 1276 ft 47.42 °N, 119.12 °W | Updated 23 seconds ago

Clear
Clear
83.1 °F
Feels Like 81 °F
N
4.3
Wind Variable Wind from NW
Gusts 4.9 mph

Today
High -- | Low -- °F
--% Chance of Precip.
Yesterday
High -- | Low -- °F
Precip. -- in
Pressure 30.10 in
Visibility 10.0 miles
Clouds Clear
Heat Index 81 °F
Dew Point 40 °F
Humidity 22%
Rainfall 0.00 in
Snow Depth Not available.
6:04 AM 7:52 PM
Waning Gibbous, 64% visible
METAR KMWH 232052Z 21012G17KT 10SM CLR 28/06 A3011 RMK AO2 SLP191 T02780056 56008
Pressure 30.10 in
Visibility 10.0 miles
Clouds Clear
Heat Index 81 °F
Dew Point 40 °F
Humidity 22%
Rainfall 0.00 in
Snow Depth Not available.
6:04 AM 7:52 PM
Waning Gibbous, 64% visible
METAR KMWH 232052Z 21012G17KT 10SM CLR 28/06 A3011 RMK AO2 SLP191 T02780056 56008

10-Day Weather Forecast

Almanac

Astronomy

Aug. 23, 2016 Rise Set
Actual Time
Civil Twilight
Nautical Twilight
Astronomical Twilight
Moon
Length of Visible Light
Length of Day
Tomorrow will be .
, % of the Moon is Illuminated

Today's Extremes

State Highs State Lows

Community

WunderPhotos

Upload Photos

1,934,470 photos uploaded!

WunderBlog® & News

Nearby

Air Quality

  Air Quality AQ Index Pollutant
Not available.

Snow Depth

Station Depth Elevation

Earthquake Activity

City Distance Mag. Time & Date
Minimum magnitude displayed is 2.5.

Coastal Water Temperatures

Place Temperature

Stations

Nearby Weather Stations

Station Location Temp. Windchill Dew Point Humidity Wind Precip. Elev Updated Type
                   

Watches & Warnings

There are currently no watches in effect.